Time;durP1;ratioP1;P1;durP2;ratioP2;P2;SDS_P1;SDS_P2;PMS_P1;PMS_P2;Temp;Humidity;BMP_temperature;BMP_pressure;BME280_temperature;BME280_humidity;BME280_pressure;Samples;Min_cycle;Max_cycle;Signal;HPM_P1;HPM_P2
2021/07/19 00:00:16;;;;;;;12.07;9.80;;;;;;;;;;4964718;28;20129;-46
2021/07/19 00:02:43;;;;;;;13.35;10.27;;;;;;;;;;4965569;28;20039;-48
2021/07/19 00:05:11;;;;;;;12.05;9.63;;;;;;;;;;4965784;28;20062;-45
2021/07/19 00:07:38;;;;;;;13.35;10.13;;;;;;;;;;4961977;23;20174;-53
2021/07/19 00:10:06;;;;;;;11.45;9.15;;;;;;;;;;4946024;28;20035;-51
2021/07/19 00:12:33;;;;;;;11.80;9.70;;;;;;;;;;4949193;28;20043;-49
2021/07/19 00:15:00;;;;;;;15.32;10.48;;;;;;;;;;4955166;28;20501;-48
2021/07/19 00:17:26;;;;;;;13.80;10.48;;;;;;;;;;4951475;28;20049;-52
2021/07/19 00:19:53;;;;;;;12.57;9.80;;;;;;;;;;4952819;28;20081;-51
2021/07/19 00:22:20;;;;;;;12.45;10.00;;;;;;;;;;4952623;28;20047;-50
2021/07/19 00:24:47;;;;;;;12.48;9.82;;;;;;;;;;4956382;28;20039;-52
2021/07/19 00:27:14;;;;;;;13.60;10.02;;;;;;;;;;4946659;28;20039;-48
2021/07/19 00:29:41;;;;;;;12.07;10.13;;;;;;;;;;4950280;28;20135;-49
2021/07/19 00:32:08;;;;;;;13.63;9.23;;;;;;;;;;4951801;28;20134;-49
2021/07/19 00:34:35;;;;;;;12.45;10.05;;;;;;;;;;4957667;28;20122;-52
2021/07/19 00:37:03;;;;;;;14.25;9.82;;;;;;;;;;4952929;28;20039;-48
2021/07/19 00:39:31;;;;;;;10.93;9.73;;;;;;;;;;4954163;28;20130;-51
2021/07/19 00:41:58;;;;;;;12.38;9.32;;;;;;;;;;4965555;28;20042;-48
2021/07/19 00:44:24;;;;;;;13.55;10.10;;;;;;;;;;4951320;28;20039;-47
2021/07/19 00:46:52;;;;;;;13.40;9.57;;;;;;;;;;4950975;28;20054;-56
2021/07/19 00:49:22;;;;;;;14.38;10.30;;;;;;;;;;4951042;28;20039;-51
2021/07/19 00:51:53;;;;;;;13.15;10.07;;;;;;;;;;4957686;28;20086;-52
2021/07/19 00:54:21;;;;;;;13.90;10.35;;;;;;;;;;4949491;28;20051;-51
2021/07/19 00:56:49;;;;;;;15.45;9.45;;;;;;;;;;4945241;28;20076;-51
2021/07/19 00:59:21;;;;;;;13.05;9.63;;;;;;;;;;4947087;28;20047;-52
2021/07/19 01:01:48;;;;;;;14.07;9.77;;;;;;;;;;4953445;28;20055;-49
2021/07/19 01:04:18;;;;;;;12.52;9.68;;;;;;;;;;4962241;28;20074;-48
2021/07/19 01:06:51;;;;;;;15.82;9.73;;;;;;;;;;4961351;28;20051;-50
2021/07/19 01:09:19;;;;;;;14.00;10.52;;;;;;;;;;4953923;28;20548;-49
2021/07/19 01:11:47;;;;;;;13.63;9.25;;;;;;;;;;4951574;28;20039;-49
2021/07/19 01:14:14;;;;;;;16.52;9.50;;;;;;;;;;4953476;28;20078;-49
2021/07/19 01:16:42;;;;;;;13.82;10.18;;;;;;;;;;4946696;28;20098;-52
2021/07/19 01:19:12;;;;;;;13.25;9.55;;;;;;;;;;4952910;28;20099;-52
2021/07/19 01:21:46;;;;;;;12.35;9.73;;;;;;;;;;4958451;28;20464;-49
2021/07/19 01:24:13;;;;;;;12.80;9.80;;;;;;;;;;4945811;29;20057;-49
2021/07/19 01:26:55;;;;;;;13.20;10.40;;;;;;;;;;4937932;28;20042;-53
2021/07/19 01:29:22;;;;;;;14.90;10.98;;;;;;;;;;4950960;28;20043;-48
2021/07/19 01:31:52;;;;;;;12.57;10.23;;;;;;;;;;4950886;28;20055;-48
2021/07/19 01:34:23;;;;;;;13.77;9.77;;;;;;;;;;4949551;28;20067;-51
2021/07/19 01:36:53;;;;;;;12.93;10.48;;;;;;;;;;4950532;28;20051;-48
2021/07/19 01:39:32;;;;;;;14.48;10.75;;;;;;;;;;4943005;28;20393;-52
2021/07/19 01:42:03;;;;;;;13.45;9.85;;;;;;;;;;4964995;28;20153;-50
2021/07/19 01:44:32;;;;;;;11.73;9.05;;;;;;;;;;4959776;28;20042;-54
2021/07/19 01:47:06;;;;;;;13.90;9.93;;;;;;;;;;4949404;28;20050;-48
2021/07/19 01:49:38;;;;;;;13.18;10.10;;;;;;;;;;4948460;28;20043;-49
2021/07/19 01:52:05;;;;;;;15.93;10.45;;;;;;;;;;4946408;28;20717;-48
2021/07/19 01:54:35;;;;;;;14.57;10.15;;;;;;;;;;4966377;28;20039;-49
2021/07/19 01:57:06;;;;;;;15.20;10.68;;;;;;;;;;4948970;28;20222;-51
2021/07/19 01:59:41;;;;;;;14.23;11.18;;;;;;;;;;4954042;28;20121;-54
2021/07/19 02:02:32;;;;;;;13.38;10.95;;;;;;;;;;4948060;28;20083;-52
2021/07/19 02:05:08;;;;;;;12.27;10.40;;;;;;;;;;4955836;28;20042;-48
2021/07/19 02:07:37;;;;;;;16.02;11.90;;;;;;;;;;4948345;28;20500;-48
2021/07/19 02:10:07;;;;;;;15.90;11.63;;;;;;;;;;4948436;29;20054;-50
2021/07/19 02:12:56;;;;;;;13.88;11.73;;;;;;;;;;4953265;28;20098;-51
2021/07/19 02:15:29;;;;;;;16.70;11.15;;;;;;;;;;4950673;28;20409;-48
2021/07/19 02:17:58;;;;;;;12.00;10.13;;;;;;;;;;4952418;28;20106;-47
2021/07/19 02:20:27;;;;;;;15.38;10.25;;;;;;;;;;4953956;28;20043;-50
2021/07/19 02:22:57;;;;;;;13.05;11.00;;;;;;;;;;4960211;28;20047;-51
2021/07/19 02:25:41;;;;;;;12.70;10.38;;;;;;;;;;4947023;28;20040;-49
2021/07/19 02:28:12;;;;;;;13.15;9.98;;;;;;;;;;4949228;28;20122;-51
2021/07/19 02:30:41;;;;;;;12.48;10.13;;;;;;;;;;4948521;28;20506;-49
2021/07/19 02:33:10;;;;;;;11.95;9.30;;;;;;;;;;4954668;28;20040;-47
2021/07/19 02:35:41;;;;;;;11.73;9.50;;;;;;;;;;4962268;28;20042;-51
2021/07/19 02:38:11;;;;;;;12.32;9.60;;;;;;;;;;4949279;28;20036;-48
2021/07/19 02:40:47;;;;;;;13.90;9.85;;;;;;;;;;4943925;28;20114;-52
2021/07/19 02:43:14;;;;;;;13.73;9.60;;;;;;;;;;4946358;29;20130;-51
2021/07/19 02:45:42;;;;;;;12.85;9.75;;;;;;;;;;4957897;28;20074;-47
2021/07/19 02:48:11;;;;;;;13.07;9.95;;;;;;;;;;4944988;28;20043;-54
2021/07/19 02:50:43;;;;;;;26.30;10.87;;;;;;;;;;4949835;28;20067;-52
2021/07/19 02:53:13;;;;;;;15.32;9.85;;;;;;;;;;4950654;28;20042;-47
2021/07/19 02:55:41;;;;;;;12.70;10.43;;;;;;;;;;4944293;28;20048;-48
2021/07/19 02:58:12;;;;;;;12.30;9.65;;;;;;;;;;4953130;28;20051;-52
2021/07/19 03:00:40;;;;;;;13.02;10.45;;;;;;;;;;4965594;28;20106;-49
2021/07/19 03:03:14;;;;;;;15.27;9.10;;;;;;;;;;4956740;28;20284;-49
2021/07/19 03:05:42;;;;;;;14.30;9.93;;;;;;;;;;4959271;28;20102;-50
2021/07/19 03:08:10;;;;;;;15.00;10.55;;;;;;;;;;4965178;28;20043;-47
2021/07/19 03:11:12;;;;;;;14.13;10.98;;;;;;;;;;4963993;28;20043;-49
2021/07/19 03:13:46;;;;;;;11.50;9.18;;;;;;;;;;4965927;28;20039;-49
2021/07/19 03:16:15;;;;;;;12.13;9.77;;;;;;;;;;4956587;28;20048;-51
2021/07/19 03:18:46;;;;;;;11.40;9.63;;;;;;;;;;4936697;28;20048;-50
2021/07/19 03:21:17;;;;;;;11.85;9.68;;;;;;;;;;4950709;28;20047;-52
2021/07/19 03:23:52;;;;;;;12.60;9.88;;;;;;;;;;4952437;28;20054;-51
2021/07/19 03:26:20;;;;;;;14.00;9.85;;;;;;;;;;4958754;28;20034;-51
2021/07/19 03:28:50;;;;;;;13.73;10.48;;;;;;;;;;4968740;28;20105;-50
2021/07/19 03:31:17;;;;;;;12.82;9.55;;;;;;;;;;4963979;28;20043;-49
2021/07/19 03:33:48;;;;;;;13.55;9.50;;;;;;;;;;4967551;28;20131;-54
2021/07/19 03:36:16;;;;;;;12.60;9.18;;;;;;;;;;4952634;28;20130;-53
2021/07/19 03:38:44;;;;;;;11.98;9.55;;;;;;;;;;4948132;28;20083;-51
2021/07/19 03:41:33;;;;;;;13.63;9.60;;;;;;;;;;4966577;28;20050;-48
2021/07/19 03:44:06;;;;;;;12.73;9.70;;;;;;;;;;4954585;28;20501;-49
2021/07/19 03:46:33;;;;;;;11.32;9.43;;;;;;;;;;4952640;28;20050;-47
2021/07/19 03:49:02;;;;;;;12.77;9.93;;;;;;;;;;4936826;29;20054;-51
2021/07/19 03:51:32;;;;;;;12.18;9.30;;;;;;;;;;4960823;28;20042;-50
2021/07/19 03:54:03;;;;;;;12.85;9.55;;;;;;;;;;4950989;28;20122;-53
2021/07/19 03:56:31;;;;;;;14.27;9.98;;;;;;;;;;4946829;28;20074;-50
2021/07/19 03:58:58;;;;;;;12.57;9.23;;;;;;;;;;4949615;28;20077;-49
2021/07/19 04:01:27;;;;;;;11.90;9.05;;;;;;;;;;4956191;28;20043;-50
2021/07/19 04:04:03;;;;;;;12.73;9.25;;;;;;;;;;4954527;28;20607;-49
2021/07/19 04:06:32;;;;;;;11.38;9.10;;;;;;;;;;4949640;28;20032;-48
2021/07/19 04:09:00;;;;;;;11.45;9.27;;;;;;;;;;4955771;28;20066;-50
2021/07/19 04:11:32;;;;;;;11.55;9.70;;;;;;;;;;4947336;28;20045;-50
2021/07/19 04:14:06;;;;;;;13.27;10.20;;;;;;;;;;4945277;28;20082;-49
2021/07/19 04:16:34;;;;;;;12.93;10.15;;;;;;;;;;4949080;28;20382;-48
2021/07/19 04:19:01;;;;;;;12.20;9.57;;;;;;;;;;4947483;28;20043;-51
2021/07/19 04:21:31;;;;;;;12.68;10.02;;;;;;;;;;4943599;28;20071;-53
2021/07/19 04:23:58;;;;;;;10.45;8.68;;;;;;;;;;4948330;28;20098;-52
2021/07/19 04:26:32;;;;;;;12.85;9.85;;;;;;;;;;4946129;28;20063;-52
2021/07/19 04:29:04;;;;;;;11.90;10.00;;;;;;;;;;4945062;28;20044;-49
2021/07/19 04:31:53;;;;;;;13.52;10.63;;;;;;;;;;4947692;29;20066;-49
2021/07/19 04:34:34;;;;;;;11.68;9.50;;;;;;;;;;4946671;28;20045;-52
2021/07/19 04:37:08;;;;;;;11.25;9.05;;;;;;;;;;4947243;28;20055;-48
2021/07/19 04:39:42;;;;;;;12.23;9.70;;;;;;;;;;4947296;28;20043;-48
2021/07/19 04:42:11;;;;;;;11.80;9.55;;;;;;;;;;4953488;29;20612;-48
2021/07/19 04:44:38;;;;;;;13.82;10.38;;;;;;;;;;4945548;28;20043;-51
2021/07/19 04:47:05;;;;;;;12.25;9.82;;;;;;;;;;4946022;28;20130;-53
2021/07/19 04:49:32;;;;;;;12.52;10.20;;;;;;;;;;4946845;29;20054;-52
2021/07/19 04:51:59;;;;;;;12.60;9.57;;;;;;;;;;4946182;28;20039;-50
2021/07/19 04:54:28;;;;;;;16.27;9.57;;;;;;;;;;4945896;28;20038;-47
2021/07/19 04:56:57;;;;;;;11.20;9.57;;;;;;;;;;4946044;28;20424;-48
2021/07/19 04:59:27;;;;;;;11.73;9.20;;;;;;;;;;4944539;28;20050;-53
2021/07/19 05:01:55;;;;;;;14.18;10.50;;;;;;;;;;4944787;28;20121;-51
2021/07/19 05:04:25;;;;;;;15.18;11.00;;;;;;;;;;4946887;28;20513;-51
2021/07/19 05:06:52;;;;;;;13.20;10.70;;;;;;;;;;4945547;28;20102;-51
2021/07/19 05:09:19;;;;;;;10.73;9.63;;;;;;;;;;4941715;28;20044;-52
2021/07/19 05:11:47;;;;;;;13.50;9.88;;;;;;;;;;4955901;28;20424;-48
2021/07/19 05:14:14;;;;;;;14.45;10.15;;;;;;;;;;4965127;28;20130;-49
2021/07/19 05:16:42;;;;;;;14.80;10.10;;;;;;;;;;4946538;28;20051;-49
2021/07/19 05:19:09;;;;;;;11.10;9.30;;;;;;;;;;4949880;28;20043;-49
2021/07/19 05:21:37;;;;;;;12.00;9.10;;;;;;;;;;4959156;28;20039;-52
2021/07/19 05:24:04;;;;;;;12.95;9.45;;;;;;;;;;4946125;28;20497;-52
2021/07/19 05:26:31;;;;;;;12.40;9.90;;;;;;;;;;4945108;28;20046;-50
2021/07/19 05:28:59;;;;;;;14.13;9.57;;;;;;;;;;4947840;28;20114;-52
2021/07/19 05:31:27;;;;;;;11.15;9.00;;;;;;;;;;4948286;28;20094;-53
2021/07/19 05:33:54;;;;;;;13.15;9.90;;;;;;;;;;4947111;28;20036;-55
2021/07/19 05:36:21;;;;;;;12.77;9.68;;;;;;;;;;4961722;28;20126;-55
2021/07/19 05:38:47;;;;;;;12.23;9.65;;;;;;;;;;4944605;28;20051;-53
2021/07/19 05:41:14;;;;;;;11.80;8.80;;;;;;;;;;4945901;28;20127;-52
2021/07/19 05:43:41;;;;;;;9.75;8.52;;;;;;;;;;4946382;28;20043;-53
2021/07/19 05:46:09;;;;;;;10.98;9.32;;;;;;;;;;4945471;28;20085;-48
2021/07/19 05:48:36;;;;;;;10.85;9.45;;;;;;;;;;4946289;28;20046;-50
2021/07/19 05:51:03;;;;;;;13.27;9.15;;;;;;;;;;4946488;28;20086;-48
2021/07/19 05:53:30;;;;;;;10.45;9.07;;;;;;;;;;4944314;28;20416;-50
2021/07/19 05:55:56;;;;;;;13.65;9.80;;;;;;;;;;4943836;28;20134;-49
2021/07/19 05:58:23;;;;;;;14.90;9.48;;;;;;;;;;4934954;28;20169;-48
2021/07/19 06:00:54;;;;;;;12.55;8.77;;;;;;;;;;4957824;28;20417;-49
2021/07/19 06:03:23;;;;;;;10.35;8.40;;;;;;;;;;4953535;28;20559;-49
2021/07/19 06:05:50;;;;;;;10.82;9.25;;;;;;;;;;4952653;28;20078;-49
2021/07/19 06:08:17;;;;;;;13.68;9.20;;;;;;;;;;4946128;28;20497;-50
2021/07/19 06:10:44;;;;;;;14.00;9.68;;;;;;;;;;4953393;28;20484;-53
2021/07/19 06:13:11;;;;;;;10.88;9.10;;;;;;;;;;4953263;28;20067;-49
2021/07/19 06:15:38;;;;;;;10.55;9.25;;;;;;;;;;4950330;28;20127;-54
2021/07/19 06:18:05;;;;;;;11.80;10.07;;;;;;;;;;4937465;28;20051;-53
2021/07/19 06:20:32;;;;;;;12.75;9.27;;;;;;;;;;4949204;28;20044;-54
2021/07/19 06:23:03;;;;;;;10.75;9.10;;;;;;;;;;4951434;28;20138;-53
2021/07/19 06:25:30;;;;;;;15.68;9.93;;;;;;;;;;4947351;28;20964;-53
2021/07/19 06:27:58;;;;;;;11.48;8.98;;;;;;;;;;4945515;29;20047;-52
2021/07/19 06:30:25;;;;;;;10.82;9.50;;;;;;;;;;4945351;28;20118;-49
2021/07/19 06:32:52;;;;;;;12.18;9.02;;;;;;;;;;4956456;28;20485;-53
2021/07/19 06:35:18;;;;;;;11.73;9.98;;;;;;;;;;4954219;29;20051;-54
2021/07/19 06:37:45;;;;;;;13.40;9.30;;;;;;;;;;4951354;28;20039;-53
2021/07/19 06:40:12;;;;;;;13.43;9.30;;;;;;;;;;4954501;28;20047;-53
2021/07/19 06:42:39;;;;;;;11.38;9.75;;;;;;;;;;4965005;28;20155;-51
2021/07/19 06:45:07;;;;;;;13.80;9.68;;;;;;;;;;4964466;28;20078;-52
2021/07/19 06:47:34;;;;;;;12.38;9.73;;;;;;;;;;4954375;28;20073;-52
2021/07/19 06:50:01;;;;;;;14.30;9.77;;;;;;;;;;4952365;28;20040;-54
2021/07/19 06:52:28;;;;;;;13.63;9.88;;;;;;;;;;4950438;28;20134;-50
2021/07/19 06:54:55;;;;;;;12.80;9.35;;;;;;;;;;4946872;28;20481;-50
2021/07/19 06:57:22;;;;;;;12.73;9.32;;;;;;;;;;4956018;28;20043;-51
2021/07/19 06:59:49;;;;;;;20.63;9.40;;;;;;;;;;4951410;28;20090;-49
2021/07/19 07:02:16;;;;;;;13.10;9.32;;;;;;;;;;4952432;28;20122;-47
2021/07/19 07:04:43;;;;;;;12.07;9.25;;;;;;;;;;4952391;28;20121;-53
2021/07/19 07:07:10;;;;;;;12.48;10.32;;;;;;;;;;4949471;29;20039;-49
2021/07/19 07:09:37;;;;;;;13.77;9.27;;;;;;;;;;4952399;28;20059;-50
2021/07/19 07:12:19;;;;;;;14.02;9.57;;;;;;;;;;4948872;28;20524;-52
2021/07/19 07:14:46;;;;;;;13.25;9.45;;;;;;;;;;4954201;28;20138;-52
2021/07/19 07:17:13;;;;;;;13.52;9.50;;;;;;;;;;4951538;28;20115;-53
2021/07/19 07:19:39;;;;;;;11.48;9.20;;;;;;;;;;4946509;28;20044;-49
2021/07/19 07:22:06;;;;;;;15.20;9.40;;;;;;;;;;4950198;28;20471;-49
2021/07/19 07:24:34;;;;;;;11.55;9.23;;;;;;;;;;4953922;28;20035;-49
2021/07/19 07:27:06;;;;;;;13.80;8.57;;;;;;;;;;4943579;28;20077;-48
2021/07/19 07:29:33;;;;;;;11.85;8.95;;;;;;;;;;4945476;28;20118;-48
2021/07/19 07:32:00;;;;;;;10.85;8.75;;;;;;;;;;4952741;28;20126;-51
2021/07/19 07:34:27;;;;;;;11.38;9.20;;;;;;;;;;4954417;28;20408;-52
2021/07/19 07:36:54;;;;;;;12.02;9.05;;;;;;;;;;4954053;28;20472;-48
2021/07/19 07:39:21;;;;;;;11.73;8.55;;;;;;;;;;4938584;28;20039;-49
2021/07/19 07:41:48;;;;;;;11.75;8.65;;;;;;;;;;4958537;28;20053;-52
2021/07/19 07:44:14;;;;;;;13.60;8.70;;;;;;;;;;4959055;28;20105;-52
2021/07/19 07:46:44;;;;;;;10.77;8.57;;;;;;;;;;4953893;28;20137;-53
2021/07/19 07:49:11;;;;;;;14.02;8.02;;;;;;;;;;4953308;28;20150;-54
2021/07/19 07:51:38;;;;;;;10.88;9.32;;;;;;;;;;4955943;28;20452;-53
2021/07/19 07:54:05;;;;;;;11.20;8.25;;;;;;;;;;4952919;28;20054;-53
2021/07/19 07:56:32;;;;;;;11.90;8.82;;;;;;;;;;4958313;28;20047;-53
2021/07/19 07:59:19;;;;;;;10.20;8.15;;;;;;;;;;4955542;28;20522;-52
2021/07/19 08:01:45;;;;;;;12.82;9.40;;;;;;;;;;4959842;28;20043;-51
2021/07/19 08:04:12;;;;;;;10.43;7.70;;;;;;;;;;4963669;28;20039;-53
2021/07/19 08:06:39;;;;;;;9.63;7.82;;;;;;;;;;4956528;28;20556;-54
2021/07/19 08:09:06;;;;;;;10.57;8.82;;;;;;;;;;4951082;28;20053;-55
2021/07/19 08:11:33;;;;;;;14.52;7.97;;;;;;;;;;4954178;28;20123;-51
2021/07/19 08:14:00;;;;;;;9.88;7.70;;;;;;;;;;4963594;28;20051;-48
2021/07/19 08:16:26;;;;;;;12.48;7.65;;;;;;;;;;4954534;28;20501;-50
2021/07/19 08:18:53;;;;;;;11.75;7.80;;;;;;;;;;4954706;28;20055;-54
2021/07/19 08:21:20;;;;;;;13.80;8.88;;;;;;;;;;4972370;28;20058;-52
2021/07/19 08:23:47;;;;;;;13.07;8.80;;;;;;;;;;4972939;28;20599;-48
2021/07/19 08:26:14;;;;;;;11.65;8.55;;;;;;;;;;4959595;28;20134;-50
2021/07/19 08:28:41;;;;;;;10.48;7.35;;;;;;;;;;4960466;28;20035;-50
2021/07/19 08:31:08;;;;;;;10.88;7.00;;;;;;;;;;4950101;29;20478;-53
2021/07/19 08:33:34;;;;;;;11.02;7.25;;;;;;;;;;4961168;28;20062;-50
2021/07/19 08:36:01;;;;;;;16.20;7.05;;;;;;;;;;4951727;28;20043;-48
2021/07/19 08:38:28;;;;;;;8.93;6.78;;;;;;;;;;4946008;28;20095;-53
2021/07/19 08:40:55;;;;;;;8.95;6.25;;;;;;;;;;4951948;28;20122;-52
2021/07/19 08:43:36;;;;;;;10.75;6.80;;;;;;;;;;4965738;28;20729;-51
2021/07/19 08:46:03;;;;;;;8.85;7.00;;;;;;;;;;4951349;28;20130;-52
2021/07/19 08:48:30;;;;;;;9.73;7.03;;;;;;;;;;4953878;28;20774;-52
2021/07/19 08:50:58;;;;;;;10.27;7.40;;;;;;;;;;4957597;28;20039;-52
2021/07/19 08:53:26;;;;;;;10.32;7.07;;;;;;;;;;4954730;28;20040;-50
2021/07/19 08:55:56;;;;;;;14.18;8.10;;;;;;;;;;4950030;28;20071;-50
2021/07/19 08:58:23;;;;;;;11.18;8.20;;;;;;;;;;4962229;28;20086;-50
2021/07/19 09:00:51;;;;;;;10.68;8.15;;;;;;;;;;4939775;28;20039;-47
2021/07/19 09:03:18;;;;;;;15.63;7.82;;;;;;;;;;4971518;28;20132;-47
2021/07/19 09:05:47;;;;;;;10.73;8.32;;;;;;;;;;4972496;28;20416;-47
2021/07/19 09:08:14;;;;;;;11.48;7.70;;;;;;;;;;4951007;28;20130;-48
2021/07/19 09:10:41;;;;;;;9.15;7.00;;;;;;;;;;4954099;28;20134;-50
2021/07/19 09:13:14;;;;;;;11.27;6.95;;;;;;;;;;4969527;28;20054;-49
2021/07/19 09:15:40;;;;;;;;;;;;;;;;;;4960272;28;20548;-50
2021/07/19 09:18:07;;;;;;;7.90;6.43;;;;;;;;;;4949910;28;20020;-52
2021/07/19 09:20:35;;;;;;;11.32;6.22;;;;;;;;;;4960205;28;20049;-51
2021/07/19 09:23:03;;;;;;;13.73;6.03;;;;;;;;;;4959715;28;20058;-50
2021/07/19 09:25:30;;;;;;;7.78;5.45;;;;;;;;;;4955436;28;20038;-55
2021/07/19 09:27:57;;;;;;;8.15;5.47;;;;;;;;;;4951085;28;20515;-52
2021/07/19 09:30:27;;;;;;;9.13;5.97;;;;;;;;;;4950121;28;20039;-48
2021/07/19 09:32:59;;;;;;;8.98;6.00;;;;;;;;;;4950730;28;20577;-47
2021/07/19 09:35:26;;;;;;;11.60;6.07;;;;;;;;;;4947434;28;20125;-48
2021/07/19 09:37:53;;;;;;;12.38;5.57;;;;;;;;;;4946346;28;20051;-52
2021/07/19 09:40:28;;;;;;;8.68;5.88;;;;;;;;;;4957393;28;20039;-52
2021/07/19 09:42:55;;;;;;;9.93;6.15;;;;;;;;;;4951680;29;20055;-48
2021/07/19 09:45:23;;;;;;;9.07;5.60;;;;;;;;;;4952600;28;20488;-49
2021/07/19 09:47:49;;;;;;;9.70;5.97;;;;;;;;;;4942125;28;20466;-48
2021/07/19 09:50:17;;;;;;;10.35;5.90;;;;;;;;;;4943120;28;20146;-52
2021/07/19 09:52:45;;;;;;;9.73;5.60;;;;;;;;;;4951857;28;20495;-50
2021/07/19 09:55:18;;;;;;;7.85;5.57;;;;;;;;;;4954818;28;20045;-52
2021/07/19 09:57:54;;;;;;;5.85;5.25;;;;;;;;;;4961764;28;20070;-52
2021/07/19 10:00:22;;;;;;;9.35;5.35;;;;;;;;;;4934322;28;20140;-47
2021/07/19 10:02:50;;;;;;;7.93;5.22;;;;;;;;;;4951605;28;20472;-51
2021/07/19 10:05:28;;;;;;;8.55;5.38;;;;;;;;;;4934367;29;20048;-52
2021/07/19 10:07:56;;;;;;;6.82;5.22;;;;;;;;;;4948202;28;20074;-51
2021/07/19 10:10:36;;;;;;;6.53;5.10;;;;;;;;;;4948871;29;20047;-51
2021/07/19 10:13:04;;;;;;;7.25;5.07;;;;;;;;;;4958600;28;20043;-49
2021/07/19 10:15:32;;;;;;;7.25;5.00;;;;;;;;;;4938862;28;20043;-50
2021/07/19 10:18:02;;;;;;;6.95;4.60;;;;;;;;;;4951090;28;20043;-51
2021/07/19 10:20:29;;;;;;;8.30;5.10;;;;;;;;;;4953200;28;20047;-53
2021/07/19 10:22:56;;;;;;;6.40;4.88;;;;;;;;;;4967365;28;20125;-49
2021/07/19 10:25:24;;;;;;;8.13;4.75;;;;;;;;;;4935717;28;20127;-49
2021/07/19 10:27:51;;;;;;;6.03;4.25;;;;;;;;;;4962669;28;20039;-52
2021/07/19 10:30:17;;;;;;;8.60;5.00;;;;;;;;;;4952842;28;20130;-47
2021/07/19 10:32:44;;;;;;;8.85;5.38;;;;;;;;;;4951281;28;20093;-48
2021/07/19 10:35:11;;;;;;;10.07;5.13;;;;;;;;;;4947395;28;20122;-50
2021/07/19 10:37:44;;;;;;;9.73;4.72;;;;;;;;;;4946812;28;21017;-47
2021/07/19 10:40:12;;;;;;;8.55;4.68;;;;;;;;;;4965907;28;20514;-49
2021/07/19 10:42:42;;;;;;;10.10;5.40;;;;;;;;;;4965838;28;20082;-52
2021/07/19 10:45:10;;;;;;;7.53;5.07;;;;;;;;;;4948102;28;20134;-50
2021/07/19 10:47:54;;;;;;;7.90;4.50;;;;;;;;;;4955044;28;20043;-51
2021/07/19 10:50:22;;;;;;;7.15;5.10;;;;;;;;;;4957581;28;20548;-48
2021/07/19 10:52:49;;;;;;;7.90;4.35;;;;;;;;;;4955226;28;20494;-51
2021/07/19 10:55:26;;;;;;;7.32;5.18;;;;;;;;;;4948686;28;20449;-51
2021/07/19 10:58:04;;;;;;;7.53;5.00;;;;;;;;;;4949620;28;20090;-52
2021/07/19 11:00:38;;;;;;;7.80;4.32;;;;;;;;;;4937906;28;20047;-52
2021/07/19 11:03:09;;;;;;;6.93;4.07;;;;;;;;;;4972122;28;20477;-51
2021/07/19 11:05:37;;;;;;;5.47;4.00;;;;;;;;;;4965815;28;20055;-50
2021/07/19 11:08:05;;;;;;;5.30;4.03;;;;;;;;;;4949331;28;20046;-52
2021/07/19 11:10:42;;;;;;;8.40;4.05;;;;;;;;;;4951738;29;20051;-50
2021/07/19 11:13:09;;;;;;;7.18;4.20;;;;;;;;;;4951456;28;20079;-53
2021/07/19 11:15:37;;;;;;;6.45;4.18;;;;;;;;;;4951239;28;20128;-50
2021/07/19 11:18:17;;;;;;;7.90;3.78;;;;;;;;;;4942710;29;20103;-51
2021/07/19 11:20:45;;;;;;;7.47;3.92;;;;;;;;;;4956461;28;20415;-52
2021/07/19 11:23:12;;;;;;;6.38;3.17;;;;;;;;;;4956325;28;20052;-52
2021/07/19 11:25:54;;;;;;;5.28;3.25;;;;;;;;;;4948343;28;20043;-54
2021/07/19 11:28:23;;;;;;;6.55;3.33;;;;;;;;;;4949135;29;20504;-51
2021/07/19 11:31:08;;;;;;;6.03;3.47;;;;;;;;;;4937520;28;20067;-54
2021/07/19 11:33:37;;;;;;;8.82;3.85;;;;;;;;;;4952007;29;20118;-53
2021/07/19 11:36:15;;;;;;;6.85;3.55;;;;;;;;;;4955993;28;20126;-51
2021/07/19 11:38:42;;;;;;;8.65;3.05;;;;;;;;;;4944237;28;20209;-53
2021/07/19 11:41:28;;;;;;;5.78;3.40;;;;;;;;;;4951653;29;20051;-49
2021/07/19 11:43:56;;;;;;;4.65;2.80;;;;;;;;;;4955813;28;20648;-50
2021/07/19 11:46:34;;;;;;;5.40;2.85;;;;;;;;;;4955826;28;20457;-49
2021/07/19 11:49:03;;;;;;;6.57;3.30;;;;;;;;;;4949127;28;20040;-49
2021/07/19 11:51:30;;;;;;;6.68;2.72;;;;;;;;;;4946149;28;20102;-52
2021/07/19 11:53:57;;;;;;;6.97;3.20;;;;;;;;;;4959016;28;20122;-52
2021/07/19 11:56:28;;;;;;;8.10;3.03;;;;;;;;;;4967705;28;20402;-54
2021/07/19 11:58:55;;;;;;;5.70;3.10;;;;;;;;;;4954599;28;20130;-54
2021/07/19 12:01:24;;;;;;;4.68;3.25;;;;;;;;;;4962355;28;20126;-54
2021/07/19 12:03:55;;;;;;;5.80;3.05;;;;;;;;;;4974880;28;20046;-51
2021/07/19 12:06:22;;;;;;;6.43;3.63;;;;;;;;;;4964864;28;20047;-51
2021/07/19 12:08:55;;;;;;;6.03;2.72;;;;;;;;;;4941376;28;20042;-54
2021/07/19 12:11:22;;;;;;;6.50;3.33;;;;;;;;;;4954396;28;20485;-53
2021/07/19 12:14:00;;;;;;;4.97;3.50;;;;;;;;;;4954939;28;20051;-53
2021/07/19 12:16:31;;;;;;;6.88;2.90;;;;;;;;;;4947331;28;20042;-52
2021/07/19 12:18:59;;;;;;;6.10;2.75;;;;;;;;;;4955457;28;20048;-54
2021/07/19 12:21:29;;;;;;;5.85;3.28;;;;;;;;;;4950206;28;20047;-54
2021/07/19 12:23:57;;;;;;;5.47;3.45;;;;;;;;;;4947739;28;20125;-51
2021/07/19 12:26:30;;;;;;;6.82;3.25;;;;;;;;;;4948478;28;20538;-54
2021/07/19 12:28:58;;;;;;;5.60;3.00;;;;;;;;;;4947435;28;20769;-54
2021/07/19 12:31:51;;;;;;;7.50;3.30;;;;;;;;;;4951948;28;20070;-53
2021/07/19 12:34:18;;;;;;;;;;;;;;;;;;4954584;28;20142;-53
2021/07/19 12:36:53;;;;;;;5.28;2.90;;;;;;;;;;4951807;28;19926;-53
2021/07/19 12:39:21;;;;;;;7.72;2.80;;;;;;;;;;4960360;28;20066;-51
2021/07/19 12:41:49;;;;;;;4.68;2.83;;;;;;;;;;4960373;28;20509;-51
2021/07/19 12:44:18;;;;;;;3.42;2.50;;;;;;;;;;4952879;28;20482;-53
2021/07/19 12:46:45;;;;;;;4.97;3.03;;;;;;;;;;4959662;28;20847;-50
2021/07/19 12:49:12;;;;;;;5.43;2.92;;;;;;;;;;4952857;28;20043;-50
2021/07/19 12:51:39;;;;;;;5.88;3.13;;;;;;;;;;4961170;28;20149;-51
2021/07/19 12:54:07;;;;;;;6.22;3.53;;;;;;;;;;4973693;28;20043;-49
2021/07/19 12:56:35;;;;;;;12.15;3.20;;;;;;;;;;4948899;28;20397;-47
2021/07/19 12:59:03;;;;;;;5.07;3.33;;;;;;;;;;4950231;28;20515;-48
2021/07/19 13:01:31;;;;;;;6.32;3.70;;;;;;;;;;4958058;28;20039;-51
2021/07/19 13:04:05;;;;;;;5.88;3.30;;;;;;;;;;4966539;28;20247;-49
2021/07/19 13:06:32;;;;;;;9.80;3.60;;;;;;;;;;4970014;28;20133;-48
2021/07/19 13:08:59;;;;;;;6.45;3.08;;;;;;;;;;4960656;28;20082;-53
2021/07/19 13:11:33;;;;;;;4.78;2.95;;;;;;;;;;4958676;28;20062;-50
2021/07/19 13:14:10;;;;;;;7.35;2.83;;;;;;;;;;4973615;28;20043;-49
2021/07/19 13:16:38;;;;;;;4.78;2.97;;;;;;;;;;4961303;28;20047;-53
2021/07/19 13:19:04;;;;;;;6.30;3.05;;;;;;;;;;4954896;28;20050;-47
2021/07/19 13:21:31;;;;;;;5.47;2.90;;;;;;;;;;4937051;28;20115;-49
2021/07/19 13:23:58;;;;;;;4.18;2.92;;;;;;;;;;4960224;28;20510;-52
2021/07/19 13:26:29;;;;;;;7.18;3.35;;;;;;;;;;4965263;28;20039;-48
2021/07/19 13:29:03;;;;;;;6.18;2.70;;;;;;;;;;4949175;28;20464;-54
2021/07/19 13:31:30;;;;;;;6.18;2.83;;;;;;;;;;4958681;28;20130;-54
2021/07/19 13:33:56;;;;;;;6.97;3.30;;;;;;;;;;4953270;28;20035;-53
2021/07/19 13:36:33;;;;;;;5.43;2.90;;;;;;;;;;4945206;28;20497;-51
2021/07/19 13:39:00;;;;;;;8.30;3.95;;;;;;;;;;4952200;28;20047;-50
2021/07/19 13:41:26;;;;;;;12.55;8.18;;;;;;;;;;4958806;28;20105;-53
2021/07/19 13:44:01;;;;;;;7.78;3.30;;;;;;;;;;4958366;28;20050;-53
2021/07/19 13:46:28;;;;;;;6.78;3.30;;;;;;;;;;4958861;28;20062;-49
2021/07/19 13:48:56;;;;;;;6.47;3.33;;;;;;;;;;4972425;28;20429;-47
2021/07/19 13:51:22;;;;;;;10.18;3.10;;;;;;;;;;4967860;28;20071;-47
2021/07/19 13:53:49;;;;;;;6.10;3.10;;;;;;;;;;4962509;28;20035;-53
2021/07/19 13:56:17;;;;;;;6.47;3.35;;;;;;;;;;4947897;28;20138;-50
2021/07/19 13:58:44;;;;;;;7.80;3.20;;;;;;;;;;4951231;28;20047;-48
2021/07/19 14:01:11;;;;;;;8.88;3.10;;;;;;;;;;4941399;28;20119;-49
2021/07/19 14:03:40;;;;;;;9.55;3.42;;;;;;;;;;4949758;28;20047;-49
2021/07/19 14:06:11;;;;;;;5.60;2.92;;;;;;;;;;4957409;28;20070;-51
2021/07/19 14:08:37;;;;;;;10.35;4.00;;;;;;;;;;4953706;28;20058;-54
2021/07/19 14:11:04;;;;;;;7.30;3.00;;;;;;;;;;4956956;28;20130;-49
2021/07/19 14:13:31;;;;;;;6.45;2.78;;;;;;;;;;4953009;28;20043;-47
2021/07/19 14:15:58;;;;;;;6.13;3.13;;;;;;;;;;4952364;28;20046;-54
2021/07/19 14:18:24;;;;;;;7.03;3.45;;;;;;;;;;4961229;28;20097;-48
2021/07/19 14:20:51;;;;;;;6.05;3.10;;;;;;;;;;4969899;28;20515;-48
2021/07/19 14:23:18;;;;;;;7.38;3.30;;;;;;;;;;4954669;28;20075;-51
2021/07/19 14:25:45;;;;;;;7.13;3.65;;;;;;;;;;4953280;28;20046;-50
2021/07/19 14:28:12;;;;;;;8.98;3.08;;;;;;;;;;4948441;28;20134;-48
2021/07/19 14:30:38;;;;;;;6.13;3.38;;;;;;;;;;4939431;28;20070;-52
2021/07/19 14:33:20;;;;;;;6.43;3.10;;;;;;;;;;4957359;28;20122;-47
2021/07/19 14:35:47;;;;;;;7.32;3.10;;;;;;;;;;4953451;28;20065;-51
2021/07/19 14:38:14;;;;;;;6.00;3.20;;;;;;;;;;4938037;28;20216;-51
2021/07/19 14:40:41;;;;;;;6.18;2.92;;;;;;;;;;4961833;28;20047;-51
2021/07/19 14:43:08;;;;;;;10.50;3.42;;;;;;;;;;4964786;28;20130;-49
2021/07/19 14:45:34;;;;;;;5.57;3.30;;;;;;;;;;4969533;28;20079;-53